Time;durP1;ratioP1;P1;durP2;ratioP2;P2;SDS_P1;SDS_P2;PMS_P1;PMS_P2;Temp;Humidity;BMP_temperature;BMP_pressure;BME280_temperature;BME280_humidity;BME280_pressure;Samples;Min_cycle;Max_cycle;Signal;HPM_P1;HPM_P2
2022/11/13 00:01:09;;;;;;;4.35;2.45;;;;;;;11.54;100.00;100367.19;5151674;27;20051;-48
2022/11/13 00:03:36;;;;;;;3.92;2.30;;;;;;;11.14;100.00;100378.78;5151395;27;20119;-49
2022/11/13 00:06:03;;;;;;;5.88;3.30;;;;;;;11.36;100.00;100366.56;5151442;27;20054;-49
2022/11/13 00:08:29;;;;;;;6.47;2.75;;;;;;;11.04;100.00;100349.03;5151631;27;20485;-51
2022/11/13 00:11:00;;;;;;;6.65;2.83;;;;;;;11.39;100.00;100354.91;5151420;27;20053;-49
2022/11/13 00:13:27;;;;;;;4.32;2.47;;;;;;;11.20;100.00;100368.41;5151697;27;20055;-48
2022/11/13 00:15:57;;;;;;;5.93;3.58;;;;;;;11.05;100.00;100362.38;5151490;27;20454;-47
2022/11/13 00:18:23;;;;;;;6.63;3.53;;;;;;;11.40;100.00;100359.28;5151782;27;20053;-49
2022/11/13 00:20:50;;;;;;;9.07;4.15;;;;;;;11.26;100.00;100373.31;5151289;27;20514;-48
2022/11/13 00:23:16;;;;;;;5.25;3.25;;;;;;;11.36;100.00;100385.78;5151577;27;20137;-48
2022/11/13 00:25:42;;;;;;;8.63;2.78;;;;;;;11.46;100.00;100395.53;5151127;27;20116;-49
2022/11/13 00:28:09;;;;;;;7.28;2.78;;;;;;;11.22;100.00;100410.81;5151149;27;20086;-49
2022/11/13 00:30:35;;;;;;;4.47;2.50;;;;;;;11.36;100.00;100383.03;5152434;27;20180;-51
2022/11/13 00:33:02;;;;;;;10.45;2.88;;;;;;;11.53;100.00;100409.53;5155010;27;20055;-52
2022/11/13 00:35:28;;;;;;;5.85;2.22;;;;;;;11.38;100.00;100421.16;5154948;27;20046;-48
2022/11/13 00:37:55;;;;;;;5.20;2.83;;;;;;;11.64;100.00;100429.91;5154624;27;20042;-48
2022/11/13 00:40:21;;;;;;;7.00;2.50;;;;;;;11.54;100.00;100431.16;5155077;27;20053;-49
2022/11/13 00:42:48;;;;;;;4.85;2.42;;;;;;;11.59;100.00;100448.53;5154691;27;20054;-48
2022/11/13 00:45:14;;;;;;;5.90;2.33;;;;;;;11.73;100.00;100462.78;5154767;27;20054;-48
2022/11/13 00:47:41;;;;;;;9.02;2.53;;;;;;;11.22;100.00;100467.66;5154536;27;20047;-49
2022/11/13 00:50:08;;;;;;;4.60;2.30;;;;;;;11.71;100.00;100443.88;5155045;27;20051;-48
2022/11/13 00:52:34;;;;;;;5.82;2.75;;;;;;;11.49;100.00;100469.81;5154322;27;20082;-51
2022/11/13 00:55:00;;;;;;;9.13;2.90;;;;;;;11.69;100.00;100454.41;5154641;27;20057;-48
2022/11/13 00:57:27;;;;;;;3.97;2.50;;;;;;;11.81;100.00;100480.31;5154682;27;20547;-47
2022/11/13 00:59:53;;;;;;;9.20;2.78;;;;;;;11.73;100.00;100498.50;5154866;27;20371;-48
2022/11/13 01:02:19;;;;;;;4.40;2.70;;;;;;;11.78;100.00;100510.06;5155141;27;20043;-48
2022/11/13 01:04:46;;;;;;;7.38;2.88;;;;;;;11.81;100.00;100513.28;5155071;27;20071;-51
2022/11/13 01:07:13;;;;;;;2.38;2.17;;;;;;;11.89;100.00;100534.38;5154725;27;20050;-47
2022/11/13 01:09:39;;;;;;;7.78;4.38;;;;;;;11.70;100.00;100538.44;5154427;27;20096;-50
2022/11/13 01:12:05;;;;;;;6.97;2.78;;;;;;;11.87;100.00;100553.97;5154599;27;20043;-49
2022/11/13 01:14:32;;;;;;;6.43;2.33;;;;;;;11.86;100.00;100562.53;5154424;27;20415;-47
2022/11/13 01:16:58;;;;;;;3.97;2.28;;;;;;;11.66;100.00;100548.50;5154545;27;20051;-49
2022/11/13 01:19:25;;;;;;;5.18;2.40;;;;;;;11.81;100.00;100540.75;5154223;27;20082;-49
2022/11/13 01:21:52;;;;;;;3.78;2.20;;;;;;;11.77;100.00;100559.84;5154467;27;20047;-48
2022/11/13 01:24:18;;;;;;;5.35;2.28;;;;;;;11.76;100.00;100566.47;5154126;27;20089;-49
2022/11/13 01:26:45;;;;;;;5.88;2.00;;;;;;;11.87;100.00;100559.47;5154201;27;20497;-48
2022/11/13 01:29:11;;;;;;;4.53;2.17;;;;;;;11.90;100.00;100563.47;5154096;27;20394;-49
2022/11/13 01:31:38;;;;;;;8.77;2.42;;;;;;;11.90;100.00;100577.22;5154186;27;20061;-51
2022/11/13 01:34:04;;;;;;;7.57;2.25;;;;;;;11.97;100.00;100588.47;5154072;27;20079;-52
2022/11/13 01:36:30;;;;;;;6.75;2.40;;;;;;;11.70;100.00;100585.13;5153989;27;20145;-52
2022/11/13 01:38:57;;;;;;;4.95;2.40;;;;;;;11.71;100.00;100585.94;5154101;27;20046;-51
2022/11/13 01:41:26;;;;;;;5.75;2.35;;;;;;;11.69;100.00;100582.72;5153691;27;20046;-52
2022/11/13 01:43:53;;;;;;;5.00;2.10;;;;;;;11.68;100.00;100592.91;5153623;27;20053;-51
2022/11/13 01:46:24;;;;;;;5.57;2.50;;;;;;;11.82;100.00;100591.81;5153668;27;20047;-49
2022/11/13 01:48:54;;;;;;;22.25;6.43;;;;;;;11.47;100.00;100586.63;5153802;27;20047;-52
2022/11/13 01:51:27;;;;;;;4.57;2.33;;;;;;;11.64;100.00;100582.94;5153874;27;20165;-49
2022/11/13 01:53:55;;;;;;;5.07;2.63;;;;;;;11.54;100.00;100589.66;5153451;27;20047;-50
2022/11/13 01:56:22;;;;;;;6.30;2.17;;;;;;;11.69;100.00;100596.44;5153553;27;20319;-50
2022/11/13 01:58:53;;;;;;;4.32;2.13;;;;;;;11.60;100.00;100607.53;5153824;27;20461;-48
2022/11/13 02:01:19;;;;;;;13.00;2.25;;;;;;;11.51;100.00;100599.34;5153906;27;20049;-48
2022/11/13 02:03:46;;;;;;;7.25;2.47;;;;;;;11.55;100.00;100610.47;5153414;27;20589;-47
2022/11/13 02:06:13;;;;;;;4.07;2.15;;;;;;;11.59;100.00;100618.84;5153812;27;20529;-49
2022/11/13 02:08:39;;;;;;;4.65;2.05;;;;;;;11.53;100.00;100626.50;5153267;27;20137;-48
2022/11/13 02:11:06;;;;;;;7.00;2.00;;;;;;;11.67;100.00;100628.97;5153596;27;20042;-48
2022/11/13 02:13:33;;;;;;;6.80;2.10;;;;;;;11.48;100.00;100630.22;5153122;27;20085;-50
2022/11/13 02:16:00;;;;;;;5.13;2.40;;;;;;;11.44;100.00;100623.00;5153708;27;20043;-47
2022/11/13 02:18:29;;;;;;;5.47;1.92;;;;;;;11.54;100.00;100625.34;5153340;27;20208;-48
2022/11/13 02:21:05;;;;;;;13.65;2.47;;;;;;;11.49;100.00;100628.28;5153239;27;20054;-48
2022/11/13 02:23:43;;;;;;;6.90;2.25;;;;;;;11.47;100.00;100631.38;5153453;27;20051;-47
2022/11/13 02:26:11;;;;;;;4.47;2.33;;;;;;;11.55;100.00;100630.50;5153028;27;20145;-46
2022/11/13 02:28:37;;;;;;;8.95;2.30;;;;;;;11.24;100.00;100630.91;5153012;27;20046;-49
2022/11/13 02:31:08;;;;;;;7.32;2.10;;;;;;;11.56;100.00;100628.53;5152842;27;20053;-47
2022/11/13 02:33:34;;;;;;;4.47;2.20;;;;;;;11.64;100.00;100624.94;5153243;27;20404;-47
2022/11/13 02:36:00;;;;;;;8.48;2.00;;;;;;;11.72;100.00;100636.97;5152876;27;20054;-48
2022/11/13 02:38:27;;;;;;;5.90;2.30;;;;;;;11.50;100.00;100640.91;5153136;27;20137;-47
2022/11/13 02:40:53;;;;;;;3.28;1.95;;;;;;;11.65;100.00;100631.22;5153011;27;20051;-48
2022/11/13 02:43:20;;;;;;;7.93;2.20;;;;;;;11.56;100.00;100631.28;5152789;27;20051;-49
2022/11/13 02:45:46;;;;;;;5.05;2.33;;;;;;;11.46;100.00;100631.69;5152846;27;20050;-47
2022/11/13 02:48:13;;;;;;;3.80;2.10;;;;;;;11.27;100.00;100632.97;5152755;27;20481;-47
2022/11/13 02:50:39;;;;;;;4.72;1.88;;;;;;;11.36;100.00;100632.09;5152821;27;20137;-48
2022/11/13 02:53:06;;;;;;;7.30;2.03;;;;;;;11.38;100.00;100633.38;5152233;27;20047;-49
2022/11/13 02:55:32;;;;;;;5.47;1.92;;;;;;;11.29;100.00;100644.41;5151849;27;20118;-49
2022/11/13 02:57:58;;;;;;;8.35;1.88;;;;;;;11.48;100.00;100626.69;5152487;27;20078;-49
2022/11/13 03:00:26;;;;;;;3.33;1.50;;;;;;;11.55;100.00;100627.75;5153000;27;20056;-47
2022/11/13 03:02:52;;;;;;;4.55;1.77;;;;;;;11.58;100.00;100623.53;5152507;27;20051;-48
2022/11/13 03:05:18;;;;;;;4.00;1.73;;;;;;;11.45;100.00;100616.38;5152807;27;20470;-48
2022/11/13 03:07:45;;;;;;;4.10;1.83;;;;;;;11.28;100.00;100600.84;5152348;27;20150;-50
2022/11/13 03:10:11;;;;;;;5.07;1.52;;;;;;;11.04;100.00;100591.31;5152489;27;20103;-51
2022/11/13 03:12:38;;;;;;;6.13;1.75;;;;;;;11.14;100.00;100592.06;5152422;27;20051;-51
2022/11/13 03:15:05;;;;;;;4.45;1.83;;;;;;;11.07;100.00;100576.13;5152194;27;20099;-51
2022/11/13 03:17:33;;;;;;;4.20;1.45;;;;;;;11.24;100.00;100572.44;5152282;27;20042;-50
2022/11/13 03:19:59;;;;;;;7.47;1.63;;;;;;;11.34;100.00;100565.75;5152269;27;20406;-47
2022/11/13 03:22:26;;;;;;;5.57;1.60;;;;;;;11.17;100.00;100536.50;5152249;27;20137;-52
2022/11/13 03:24:52;;;;;;;2.47;1.30;;;;;;;11.20;100.00;100538.56;5152119;27;20054;-51
2022/11/13 03:27:19;;;;;;;3.38;1.63;;;;;;;11.35;100.00;100561.84;5152357;27;20056;-51
2022/11/13 03:29:45;;;;;;;2.25;1.45;;;;;;;11.14;100.00;100537.97;5151978;27;20477;-51
2022/11/13 03:32:11;;;;;;;7.97;1.95;;;;;;;11.30;100.00;100566.41;5152493;27;20046;-48
2022/11/13 03:34:38;;;;;;;6.63;1.75;;;;;;;11.19;100.00;100547.94;5151787;27;20089;-51
2022/11/13 03:37:04;;;;;;;2.83;1.40;;;;;;;11.24;100.00;100548.53;5151953;27;20047;-48
2022/11/13 03:39:31;;;;;;;3.40;1.55;;;;;;;11.32;100.00;100560.59;5152135;27;20087;-52
2022/11/13 03:41:57;;;;;;;2.72;1.50;;;;;;;11.08;100.00;100559.31;5152060;27;20153;-48
2022/11/13 03:44:23;;;;;;;4.45;1.63;;;;;;;11.04;100.00;100574.84;5152270;27;20096;-48
2022/11/13 03:46:49;;;;;;;4.35;1.40;;;;;;;11.09;100.00;100587.56;5151937;27;20051;-47
2022/11/13 03:49:16;;;;;;;4.03;1.70;;;;;;;10.97;100.00;100590.25;5151980;27;20055;-50
2022/11/13 03:51:43;;;;;;;14.18;2.10;;;;;;;11.07;100.00;100603.56;5151788;27;20194;-47
2022/11/13 03:54:09;;;;;;;11.32;2.00;;;;;;;10.96;100.00;100607.81;5152026;27;20103;-47
2022/11/13 03:56:35;;;;;;;8.13;2.00;;;;;;;11.29;100.00;100602.44;5151627;27;20137;-48
2022/11/13 03:59:01;;;;;;;4.47;1.67;;;;;;;11.25;100.00;100607.78;5152019;27;20146;-50
2022/11/13 04:01:28;;;;;;;3.50;1.75;;;;;;;11.17;100.00;100614.16;5151455;27;20043;-47
2022/11/13 04:03:54;;;;;;;3.83;2.00;;;;;;;10.83;100.00;100628.91;5151868;27;20054;-47
2022/11/13 04:06:21;;;;;;;5.07;1.67;;;;;;;10.83;100.00;100626.16;5151245;27;20549;-46
2022/11/13 04:08:48;;;;;;;4.72;1.52;;;;;;;10.83;100.00;100659.06;5151331;27;20110;-50
2022/11/13 04:11:14;;;;;;;3.97;1.80;;;;;;;10.92;100.00;100650.78;5151570;27;20046;-51
2022/11/13 04:13:40;;;;;;;7.13;1.75;;;;;;;11.10;100.00;100638.59;5151533;27;20645;-47
2022/11/13 04:16:07;;;;;;;3.83;1.27;;;;;;;10.89;100.00;100633.03;5151407;27;20098;-50
2022/11/13 04:18:33;;;;;;;12.27;1.90;;;;;;;10.78;100.00;100648.28;5151168;27;20046;-51
2022/11/13 04:21:00;;;;;;;3.63;1.58;;;;;;;10.83;100.00;100635.19;5151501;27;20505;-51
2022/11/13 04:23:26;;;;;;;2.55;1.63;;;;;;;10.76;100.00;100629.41;5151307;27;20050;-48
2022/11/13 04:25:53;;;;;;;3.58;1.98;;;;;;;10.71;100.00;100615.06;5151231;27;20138;-49
2022/11/13 04:28:19;;;;;;;6.28;2.88;;;;;;;10.47;100.00;100626.63;5151159;27;20133;-46
2022/11/13 04:30:46;;;;;;;3.17;1.70;;;;;;;10.45;100.00;100648.88;5151556;27;20097;-47
2022/11/13 04:33:12;;;;;;;7.20;1.67;;;;;;;10.48;100.00;100655.66;5151034;27;20054;-47
2022/11/13 04:35:40;;;;;;;7.85;2.05;;;;;;;10.41;100.00;100658.91;5151137;27;20513;-48
2022/11/13 04:38:06;;;;;;;4.03;1.77;;;;;;;10.32;100.00;100660.84;5151183;27;20046;-48
2022/11/13 04:40:33;;;;;;;11.55;2.35;;;;;;;10.27;100.00;100658.28;5151080;27;20197;-48
2022/11/13 04:42:59;;;;;;;4.07;2.33;;;;;;;10.24;100.00;100661.66;5151084;27;20149;-47
2022/11/13 04:45:26;;;;;;;9.10;3.05;;;;;;;10.16;100.00;100666.00;5151189;27;20053;-46
2022/11/13 04:47:53;;;;;;;5.80;2.58;;;;;;;9.92;100.00;100673.94;5151175;27;20058;-49
2022/11/13 04:50:19;;;;;;;7.22;2.30;;;;;;;9.99;100.00;100664.09;5150867;27;20133;-46
2022/11/13 04:52:46;;;;;;;5.43;2.28;;;;;;;10.09;100.00;100666.50;5151173;27;20439;-47
2022/11/13 04:55:12;;;;;;;5.28;2.40;;;;;;;10.00;100.00;100668.47;5150744;27;20517;-50
2022/11/13 04:57:39;;;;;;;7.43;2.88;;;;;;;9.88;100.00;100668.31;5151145;27;20111;-47
2022/11/13 05:00:08;;;;;;;10.00;4.18;;;;;;;9.94;100.00;100663.47;5150707;27;20552;-46
2022/11/13 05:02:35;;;;;;;4.70;2.13;;;;;;;9.82;100.00;100667.66;5150705;27;20050;-50
2022/11/13 05:05:02;;;;;;;11.82;3.88;;;;;;;9.92;100.00;100663.00;5150873;27;20096;-48
2022/11/13 05:07:28;;;;;;;8.15;3.03;;;;;;;9.85;100.00;100661.53;5150684;27;20145;-47
2022/11/13 05:09:55;;;;;;;5.40;2.42;;;;;;;9.83;100.00;100660.25;5150808;27;20182;-47
2022/11/13 05:12:21;;;;;;;7.82;2.58;;;;;;;9.82;100.00;100658.63;5150684;27;20183;-47
2022/11/13 05:14:47;;;;;;;2.83;2.05;;;;;;;9.67;100.00;100654.47;5150466;27;20090;-50
2022/11/13 05:17:14;;;;;;;4.00;2.00;;;;;;;9.76;100.00;100643.50;5151145;27;20051;-47
2022/11/13 05:19:40;;;;;;;9.68;2.80;;;;;;;9.71;100.00;100644.47;5154602;27;20053;-49
2022/11/13 05:22:07;;;;;;;4.72;2.55;;;;;;;9.57;100.00;100641.91;5154069;27;20138;-49
2022/11/13 05:24:33;;;;;;;6.20;2.65;;;;;;;9.47;100.00;100627.72;5154317;27;20521;-48
2022/11/13 05:26:59;;;;;;;7.57;2.72;;;;;;;9.49;100.00;100609.03;5154030;27;20089;-49
2022/11/13 05:29:26;;;;;;;10.30;2.60;;;;;;;9.46;100.00;100602.28;5154155;27;20050;-50
2022/11/13 05:31:52;;;;;;;4.50;2.60;;;;;;;9.54;100.00;100606.16;5154418;27;20134;-48
2022/11/13 05:34:20;;;;;;;6.47;2.80;;;;;;;9.42;100.00;100599.38;5153764;27;20053;-48
2022/11/13 05:36:46;;;;;;;7.03;2.90;;;;;;;9.59;100.00;100586.81;5153867;27;20053;-48
2022/11/13 05:39:12;;;;;;;9.00;2.85;;;;;;;9.49;100.00;100596.16;5153976;27;20051;-46
2022/11/13 05:41:39;;;;;;;11.52;2.80;;;;;;;9.69;100.00;100591.16;5154071;27;20137;-49
2022/11/13 05:44:05;;;;;;;9.80;3.38;;;;;;;9.71;100.00;100599.84;5153919;27;20050;-49
2022/11/13 05:46:31;;;;;;;9.13;3.38;;;;;;;9.59;100.00;100598.56;5153874;27;20648;-47
2022/11/13 05:48:59;;;;;;;8.63;3.10;;;;;;;9.63;100.00;100596.00;5153806;27;20129;-49
2022/11/13 05:51:28;;;;;;;4.57;2.78;;;;;;;9.54;100.00;100598.75;5154106;27;20643;-51
2022/11/13 05:53:55;;;;;;;7.43;3.13;;;;;;;9.92;100.00;100594.50;5153539;27;20050;-48
2022/11/13 05:56:22;;;;;;;12.18;4.07;;;;;;;9.90;100.00;100595.63;5153872;27;20622;-47
2022/11/13 05:58:50;;;;;;;9.23;4.25;;;;;;;10.06;100.00;100601.41;5153449;27;20050;-47
2022/11/13 06:01:19;;;;;;;10.38;3.38;;;;;;;10.13;100.00;100607.19;5153378;27;20086;-50
2022/11/13 06:03:46;;;;;;;10.90;3.55;;;;;;;9.94;100.00;100625.13;5153445;27;20130;-49
2022/11/13 06:06:14;;;;;;;10.50;3.20;;;;;;;9.97;100.00;100633.50;5153572;27;20046;-47
2022/11/13 06:08:41;;;;;;;8.82;3.22;;;;;;;10.11;100.00;100630.56;5153603;27;20522;-51
2022/11/13 06:11:10;;;;;;;10.18;4.15;;;;;;;10.11;100.00;100638.78;5153243;27;20054;-47
2022/11/13 06:13:37;;;;;;;5.47;2.85;;;;;;;10.13;100.00;100644.75;5153257;27;20051;-47
2022/11/13 06:16:05;;;;;;;7.82;2.92;;;;;;;10.22;100.00;100645.53;5153388;27;20053;-47
2022/11/13 06:18:32;;;;;;;11.27;3.20;;;;;;;10.23;100.00;100655.38;5153102;27;20046;-48
2022/11/13 06:21:01;;;;;;;7.60;3.42;;;;;;;10.22;100.00;100666.66;5153254;27;20133;-48
2022/11/13 06:23:27;;;;;;;9.55;3.63;;;;;;;10.29;100.00;100675.22;5153408;27;20055;-47
2022/11/13 06:26:00;;;;;;;6.78;3.28;;;;;;;9.97;100.00;100673.78;5153300;27;20053;-47
2022/11/13 06:28:27;;;;;;;7.30;3.03;;;;;;;9.99;100.00;100655.06;5152958;27;20051;-48
2022/11/13 06:30:53;;;;;;;8.98;3.47;;;;;;;10.11;100.00;100650.56;5153406;27;20446;-50
2022/11/13 06:33:19;;;;;;;7.93;3.88;;;;;;;10.51;100.00;100646.78;5153066;27;20051;-51
2022/11/13 06:35:46;;;;;;;15.52;5.50;;;;;;;10.33;100.00;100673.44;5153117;27;20082;-50
2022/11/13 06:38:12;;;;;;;4.65;2.65;;;;;;;10.31;100.00;100687.47;5152993;27;20142;-47
2022/11/13 06:40:39;;;;;;;4.38;2.65;;;;;;;10.47;100.00;100695.97;5153042;27;20086;-52
2022/11/13 06:43:06;;;;;;;10.45;3.42;;;;;;;10.39;100.00;100701.47;5152844;27;20137;-50
2022/11/13 06:45:32;;;;;;;6.35;3.20;;;;;;;10.64;100.00;100706.09;5153294;27;20424;-49
2022/11/13 06:47:58;;;;;;;7.80;2.95;;;;;;;10.84;100.00;100710.06;5152755;27;20050;-48
2022/11/13 06:50:25;;;;;;;5.82;3.65;;;;;;;10.68;100.00;100720.75;5152717;27;20176;-51
2022/11/13 06:52:51;;;;;;;7.07;3.47;;;;;;;10.29;100.00;100702.63;5152673;27;20179;-52
2022/11/13 06:55:17;;;;;;;10.32;3.30;;;;;;;10.66;100.00;100703.81;5152478;27;20047;-48
2022/11/13 06:57:43;;;;;;;7.80;3.30;;;;;;;10.69;100.00;100708.63;5152462;27;20053;-50
2022/11/13 07:00:12;;;;;;;8.18;3.53;;;;;;;10.86;100.00;100712.44;5152222;27;20100;-50
2022/11/13 07:02:38;;;;;;;8.60;3.45;;;;;;;10.97;100.00;100710.97;5153022;27;20043;-50
2022/11/13 07:05:05;;;;;;;11.48;3.70;;;;;;;11.07;100.00;100716.88;5152537;27;20175;-51
2022/11/13 07:07:31;;;;;;;6.97;3.78;;;;;;;11.01;100.00;100712.72;5152606;27;20463;-51
2022/11/13 07:09:57;;;;;;;8.23;3.90;;;;;;;11.11;100.00;100717.03;5152645;27;20050;-49
2022/11/13 07:12:23;;;;;;;9.68;3.78;;;;;;;10.95;100.00;100724.22;5152899;27;20086;-51
2022/11/13 07:14:50;;;;;;;7.38;3.45;;;;;;;11.01;100.00;100718.22;5152306;27;20142;-51
2022/11/13 07:17:17;;;;;;;7.90;3.55;;;;;;;11.06;100.00;100712.53;5152600;27;20046;-49
2022/11/13 07:19:43;;;;;;;7.13;3.58;;;;;;;11.22;100.00;100718.25;5152153;27;20133;-48
2022/11/13 07:22:09;;;;;;;10.05;3.72;;;;;;;11.28;100.00;100711.44;5152174;27;20057;-50
2022/11/13 07:24:35;;;;;;;13.27;3.13;;;;;;;11.13;100.00;100700.22;5152598;27;20465;-47
2022/11/13 07:27:02;;;;;;;10.95;3.47;;;;;;;11.11;100.00;100714.28;5152193;27;20520;-48
2022/11/13 07:29:28;;;;;;;10.20;3.95;;;;;;;11.17;100.00;100714.91;5152376;27;20050;-49
2022/11/13 07:31:54;;;;;;;6.30;3.38;;;;;;;11.41;100.00;100715.09;5152377;27;20055;-48
2022/11/13 07:34:21;;;;;;;9.30;5.30;;;;;;;11.28;100.00;100705.16;5152546;27;20466;-51
2022/11/13 07:36:47;;;;;;;8.43;3.90;;;;;;;11.50;100.00;100698.56;5152343;27;20050;-50
2022/11/13 07:39:14;;;;;;;8.05;3.85;;;;;;;11.61;100.00;100701.72;5152516;27;20051;-49
2022/11/13 07:41:40;;;;;;;6.63;3.40;;;;;;;11.75;100.00;100697.56;5151554;27;20050;-50
2022/11/13 07:44:06;;;;;;;4.40;3.00;;;;;;;11.76;100.00;100677.19;5152135;27;20057;-49
2022/11/13 07:46:33;;;;;;;4.85;3.25;;;;;;;11.67;100.00;100664.69;5152042;27;20508;-50
2022/11/13 07:48:59;;;;;;;9.30;3.42;;;;;;;12.06;100.00;100651.56;5152144;27;20050;-48
2022/11/13 07:51:26;;;;;;;9.20;3.58;;;;;;;11.89;100.00;100655.28;5152050;27;20074;-49
2022/11/13 07:53:52;;;;;;;5.15;2.70;;;;;;;12.12;100.00;100606.22;5151500;27;20137;-48
2022/11/13 07:56:18;;;;;;;7.18;2.85;;;;;;;11.91;100.00;100595.31;5152117;27;20572;-47
2022/11/13 07:58:45;;;;;;;6.57;2.30;;;;;;;12.19;100.00;100574.28;5151623;27;20050;-47
2022/11/13 08:01:11;;;;;;;5.65;2.63;;;;;;;12.07;100.00;100526.75;5151778;27;20051;-48
2022/11/13 08:03:37;;;;;;;8.73;2.65;;;;;;;12.05;100.00;100562.00;5151557;27;20519;-48
2022/11/13 08:06:05;;;;;;;3.97;2.30;;;;;;;12.17;100.00;100526.31;5151485;27;20054;-49
2022/11/13 08:08:34;;;;;;;6.88;2.53;;;;;;;12.38;100.00;100477.50;5151509;27;20051;-50
2022/11/13 08:11:04;;;;;;;5.60;2.20;;;;;;;12.82;100.00;100413.56;5151716;27;20150;-50
2022/11/13 08:13:30;;;;;;;3.92;2.28;;;;;;;12.97;100.00;100283.44;5151527;27;20497;-48
2022/11/13 08:15:58;;;;;;;2.95;2.00;;;;;;;13.29;100.00;100071.44;5151267;27;20103;-49
2022/11/13 08:18:26;;;;;;;7.47;2.67;;;;;;;13.26;100.00;99942.72;5151626;27;20078;-48
2022/11/13 08:20:52;;;;;;;6.90;2.30;;;;;;;13.69;100.00;99861.66;5151424;27;20137;-49
2022/11/13 08:23:18;;;;;;;5.07;2.03;;;;;;;13.67;100.00;99681.38;5151218;27;20142;-52
2022/11/13 08:25:45;;;;;;;4.45;1.95;;;;;;;13.79;100.00;99595.69;5151101;27;20137;-49
2022/11/13 08:28:12;;;;;;;11.10;2.33;;;;;;;13.83;100.00;99552.47;5151109;27;20524;-49
2022/11/13 08:30:38;;;;;;;6.47;1.98;;;;;;;14.18;100.00;99474.03;5151425;27;20097;-48
2022/11/13 08:33:04;;;;;;;5.53;1.75;;;;;;;13.45;100.00;99537.84;5151034;27;20047;-49
2022/11/13 08:35:31;;;;;;;5.35;2.40;;;;;;;12.93;100.00;99701.88;5151174;27;20047;-48
2022/11/13 08:38:01;;;;;;;4.93;2.17;;;;;;;12.88;100.00;99730.47;5151442;27;20050;-48
2022/11/13 08:40:27;;;;;;;5.38;2.20;;;;;;;12.67;100.00;99856.63;5151169;27;20074;-49
2022/11/13 08:42:59;;;;;;;3.03;1.88;;;;;;;12.09;100.00;99994.75;5151257;27;20057;-48
2022/11/13 08:45:25;;;;;;;9.13;2.15;;;;;;;12.18;100.00;100066.06;5151142;27;20050;-49
2022/11/13 08:47:51;;;;;;;9.82;2.10;;;;;;;12.17;100.00;100057.03;5150839;27;20096;-47
2022/11/13 08:50:18;;;;;;;3.38;1.90;;;;;;;12.21;100.00;100132.13;5151382;27;20129;-48
2022/11/13 08:52:44;;;;;;;7.05;1.98;;;;;;;11.85;100.00;100152.34;5152573;27;20046;-48
2022/11/13 08:55:11;;;;;;;9.27;2.15;;;;;;;12.03;100.00;100169.34;5154894;27;20047;-50
2022/11/13 08:57:39;;;;;;;7.72;1.88;;;;;;;11.85;100.00;100141.34;5154903;27;20096;-48
2022/11/13 09:00:07;;;;;;;5.03;1.75;;;;;;;11.82;100.00;100207.16;5154641;27;20391;-49
2022/11/13 09:02:33;;;;;;;8.50;2.03;;;;;;;11.78;100.00;100235.31;5154298;27;20050;-50
2022/11/13 09:04:59;;;;;;;2.22;1.55;;;;;;;11.64;100.00;100253.31;5154929;27;20556;-51
2022/11/13 09:07:26;;;;;;;4.32;2.10;;;;;;;11.59;100.00;100320.25;5154660;27;20043;-52
2022/11/13 09:09:52;;;;;;;4.80;1.95;;;;;;;11.71;100.00;100284.56;5154755;27;20134;-49
2022/11/13 09:12:18;;;;;;;5.07;1.80;;;;;;;11.80;100.00;100210.25;5154325;27;20111;-48
2022/11/13 09:14:44;;;;;;;10.23;2.17;;;;;;;11.78;100.00;100207.84;5154082;27;20467;-47
2022/11/13 09:17:11;;;;;;;7.15;1.70;;;;;;;11.75;100.00;100108.84;5154350;27;20390;-48
2022/11/13 09:19:38;;;;;;;3.20;1.40;;;;;;;11.98;100.00;100032.16;5154140;27;20058;-50
2022/11/13 09:22:04;;;;;;;3.33;1.52;;;;;;;12.03;100.00;99976.97;5154371;27;20194;-49
2022/11/13 09:24:30;;;;;;;6.50;1.67;;;;;;;11.91;100.00;99924.84;5154126;27;20065;-52
2022/11/13 09:26:57;;;;;;;5.43;1.75;;;;;;;12.11;100.00;99911.97;5153996;27;20056;-52
2022/11/13 09:29:24;;;;;;;3.63;1.65;;;;;;;12.21;100.00;99898.47;5154022;27;20084;-51
2022/11/13 09:31:51;;;;;;;5.20;2.08;;;;;;;12.23;100.00;99810.16;5154249;27;20042;-47
2022/11/13 09:34:18;;;;;;;4.85;1.50;;;;;;;12.16;100.00;99680.78;5153805;27;20140;-52
2022/11/13 09:36:44;;;;;;;3.95;1.50;;;;;;;12.12;100.00;99657.94;5154242;27;20046;-51
2022/11/13 09:39:10;;;;;;;2.35;1.52;;;;;;;12.23;100.00;99574.53;5153909;27;20183;-50
2022/11/13 09:41:40;;;;;;;3.22;1.38;;;;;;;12.62;100.00;99516.63;5154039;27;20050;-50
2022/11/13 09:44:14;;;;;;;3.85;1.23;;;;;;;12.61;100.00;99423.50;5153837;27;20051;-47
2022/11/13 09:46:44;;;;;;;1.75;1.23;;;;;;;12.42;100.00;99383.94;5153706;27;20544;-48
2022/11/13 09:49:16;;;;;;;3.88;1.83;;;;;;;12.39;100.00;99351.69;5153987;27;20130;-51
2022/11/13 09:51:49;;;;;;;5.25;1.20;;;;;;;12.00;100.00;99340.97;5153867;27;20051;-50
2022/11/13 09:54:16;;;;;;;2.43;1.20;;;;;;;12.04;100.00;99362.19;5153430;27;20086;-48
2022/11/13 09:56:49;;;;;;;3.20;1.20;;;;;;;12.24;100.00;99338.94;5153769;27;20047;-51
2022/11/13 09:59:26;;;;;;;2.47;1.08;;;;;;;12.20;100.00;99347.13;5153933;27;20047;-48
2022/11/13 10:01:59;;;;;;;2.28;1.00;;;;;;;12.42;100.00;99347.41;5153499;27;20088;-51
2022/11/13 10:04:37;;;;;;;2.95;1.20;;;;;;;12.05;100.00;99347.28;5153013;27;20416;-47
2022/11/13 10:07:21;;;;;;;2.28;1.20;;;;;;;11.97;100.00;99380.16;5153569;27;20426;-51
2022/11/13 10:10:16;;;;;;;2.70;1.05;;;;;;;12.10;100.00;99388.22;5153388;27;20138;-52
2022/11/13 10:12:44;;;;;;;2.60;1.20;;;;;;;12.04;100.00;99376.72;5153584;27;20078;-48
2022/11/13 10:15:11;;;;;;;3.08;1.10;;;;;;;11.93;100.00;99346.34;5153300;27;20051;-51
2022/11/13 10:17:40;;;;;;;8.00;1.42;;;;;;;12.10;100.00;99336.78;5153209;27;20493;-51
2022/11/13 10:20:14;;;;;;;3.08;1.30;;;;;;;12.33;100.00;99330.41;5153163;27;20126;-49
2022/11/13 10:22:48;;;;;;;3.13;0.95;;;;;;;12.54;100.00;99338.16;5153450;27;20047;-50
2022/11/13 10:25:18;;;;;;;2.90;1.25;;;;;;;12.54;100.00;99349.16;5153435;27;20054;-48
2022/11/13 10:27:50;;;;;;;2.63;1.13;;;;;;;12.51;100.00;99336.16;5152938;27;20043;-49
2022/11/13 10:30:18;;;;;;;3.30;1.38;;;;;;;12.28;100.00;99347.22;5153360;27;20461;-47
2022/11/13 10:32:45;;;;;;;4.25;1.30;;;;;;;12.75;100.00;99352.16;5152931;27;20046;-47
2022/11/13 10:35:44;;;;;;;3.53;1.33;;;;;;;12.82;100.00;99343.97;5153054;27;20094;-48
2022/11/13 10:38:20;;;;;;;1.98;1.30;;;;;;;13.38;100.00;99361.50;5152842;27;20061;-47
2022/11/13 10:40:46;;;;;;;2.63;1.40;;;;;;;13.56;100.00;99412.06;5152796;27;20051;-47
2022/11/13 10:43:15;;;;;;;2.00;1.30;;;;;;;13.26;100.00;99442.44;5152800;27;20051;-47
2022/11/13 10:45:43;;;;;;;2.92;1.23;;;;;;;13.52;100.00;99429.72;5152936;27;20131;-47
2022/11/13 10:48:20;;;;;;;3.78;1.23;;;;;;;13.11;100.00;99435.94;5152702;27;20133;-48
2022/11/13 10:50:53;;;;;;;3.25;1.58;;;;;;;13.63;100.00;99431.41;5152738;27;20424;-49
2022/11/13 10:53:20;;;;;;;2.10;1.15;;;;;;;13.52;100.00;99460.78;5152503;27;20050;-49
2022/11/13 10:55:51;;;;;;;2.90;1.27;;;;;;;13.84;100.00;99461.13;5152426;27;20046;-48
2022/11/13 10:58:19;;;;;;;2.20;1.30;;;;;;;14.02;100.00;99491.59;5152504;27;20046;-47
2022/11/13 11:00:48;;;;;;;2.22;1.02;;;;;;;13.97;100.00;99472.66;5152776;27;20157;-49
2022/11/13 11:03:17;;;;;;;3.03;1.50;;;;;;;13.84;100.00;99501.69;5152616;27;20046;-48
2022/11/13 11:05:54;;;;;;;4.05;1.50;;;;;;;13.79;100.00;99524.84;5152776;27;20553;-48
2022/11/13 11:08:25;;;;;;;2.08;1.00;;;;;;;13.56;100.00;99537.97;5152347;27;20043;-50
2022/11/13 11:13:42;;;;;;;5.57;1.38;;;;;;;13.33;100.00;99488.53;5152385;27;20046;-49
2022/11/13 11:16:14;;;;;;;1.55;1.00;;;;;;;13.09;100.00;99467.75;5151564;27;20065;-51
2022/11/13 11:18:45;;;;;;;3.97;1.40;;;;;;;12.97;100.00;99471.53;5152318;27;20050;-48
2022/11/13 11:21:15;;;;;;;3.97;1.52;;;;;;;12.71;100.00;99461.34;5152023;27;20098;-50
2022/11/13 11:23:48;;;;;;;1.95;1.10;;;;;;;12.58;100.00;99482.78;5152085;27;20058;-47